sensor_id;sensor_type;location;lat;lon;timestamp;P1;durP1;ratioP1;P2;durP2;ratioP2
15151;SDS011;7676;50.900;6.234;2022-10-24T00:01:07;5.23;;;2.43;;
15151;SDS011;7676;50.900;6.234;2022-10-24T00:06:11;5.83;;;2.00;;
15151;SDS011;7676;50.900;6.234;2022-10-24T00:11:18;4.13;;;1.90;;
15151;SDS011;7676;50.900;6.234;2022-10-24T00:16:24;3.80;;;2.00;;
15151;SDS011;7676;50.900;6.234;2022-10-24T00:21:27;4.90;;;1.63;;
15151;SDS011;7676;50.900;6.234;2022-10-24T00:26:30;2.13;;;1.50;;
15151;SDS011;7676;50.900;6.234;2022-10-24T00:31:32;5.33;;;1.80;;
15151;SDS011;7676;50.900;6.234;2022-10-24T00:36:35;5.20;;;1.80;;
15151;SDS011;7676;50.900;6.234;2022-10-24T00:41:39;2.70;;;1.50;;
15151;SDS011;7676;50.900;6.234;2022-10-24T00:46:45;3.40;;;1.73;;
15151;SDS011;7676;50.900;6.234;2022-10-24T00:52:05;3.80;;;1.60;;
15151;SDS011;7676;50.900;6.234;2022-10-24T01:02:30;3.50;;;1.67;;
15151;SDS011;7676;50.900;6.234;2022-10-24T01:28:51;1.97;;;1.33;;
15151;SDS011;7676;50.900;6.234;2022-10-24T01:33:56;3.93;;;1.40;;
15151;SDS011;7676;50.900;6.234;2022-10-24T01:39:05;2.83;;;1.67;;
15151;SDS011;7676;50.900;6.234;2022-10-24T01:44:15;3.77;;;1.73;;
15151;SDS011;7676;50.900;6.234;2022-10-24T01:49:25;3.70;;;1.63;;
15151;SDS011;7676;50.900;6.234;2022-10-24T01:54:32;4.27;;;1.50;;
15151;SDS011;7676;50.900;6.234;2022-10-24T01:59:38;2.47;;;1.30;;
15151;SDS011;7676;50.900;6.234;2022-10-24T02:04:45;4.17;;;1.60;;
15151;SDS011;7676;50.900;6.234;2022-10-24T02:10:10;5.13;;;1.30;;
15151;SDS011;7676;50.900;6.234;2022-10-24T02:15:35;2.43;;;1.23;;
15151;SDS011;7676;50.900;6.234;2022-10-24T02:20:46;3.47;;;1.57;;
15151;SDS011;7676;50.900;6.234;2022-10-24T02:25:59;1.97;;;1.37;;
15151;SDS011;7676;50.900;6.234;2022-10-24T02:31:06;2.70;;;1.20;;
15151;SDS011;7676;50.900;6.234;2022-10-24T02:36:13;3.97;;;1.53;;
15151;SDS011;7676;50.900;6.234;2022-10-24T02:41:19;2.47;;;1.30;;
15151;SDS011;7676;50.900;6.234;2022-10-24T02:46:25;3.20;;;1.43;;
15151;SDS011;7676;50.900;6.234;2022-10-24T02:51:30;3.77;;;1.33;;
15151;SDS011;7676;50.900;6.234;2022-10-24T02:56:34;3.90;;;1.30;;
15151;SDS011;7676;50.900;6.234;2022-10-24T03:01:40;3.83;;;1.40;;
15151;SDS011;7676;50.900;6.234;2022-10-24T03:06:43;3.53;;;1.43;;
15151;SDS011;7676;50.900;6.234;2022-10-24T03:11:45;2.07;;;1.30;;
15151;SDS011;7676;50.900;6.234;2022-10-24T03:16:47;2.10;;;1.10;;
15151;SDS011;7676;50.900;6.234;2022-10-24T03:21:50;3.20;;;1.50;;
15151;SDS011;7676;50.900;6.234;2022-10-24T03:26:52;3.57;;;1.43;;
15151;SDS011;7676;50.900;6.234;2022-10-24T03:31:54;3.23;;;1.63;;
15151;SDS011;7676;50.900;6.234;2022-10-24T03:36:57;2.67;;;1.20;;
15151;SDS011;7676;50.900;6.234;2022-10-24T03:41:59;2.77;;;1.20;;
15151;SDS011;7676;50.900;6.234;2022-10-24T03:47:02;1.93;;;1.10;;
15151;SDS011;7676;50.900;6.234;2022-10-24T03:52:04;2.10;;;1.20;;
15151;SDS011;7676;50.900;6.234;2022-10-24T03:57:11;2.87;;;1.27;;
15151;SDS011;7676;50.900;6.234;2022-10-24T04:02:13;2.57;;;1.13;;
15151;SDS011;7676;50.900;6.234;2022-10-24T04:07:16;3.53;;;1.10;;
15151;SDS011;7676;50.900;6.234;2022-10-24T04:12:18;4.13;;;1.00;;
15151;SDS011;7676;50.900;6.234;2022-10-24T04:17:20;3.30;;;1.27;;
15151;SDS011;7676;50.900;6.234;2022-10-24T04:22:22;2.63;;;1.20;;
15151;SDS011;7676;50.900;6.234;2022-10-24T04:27:25;2.87;;;1.20;;
15151;SDS011;7676;50.900;6.234;2022-10-24T04:32:27;2.90;;;0.97;;
15151;SDS011;7676;50.900;6.234;2022-10-24T04:37:30;2.93;;;1.10;;
15151;SDS011;7676;50.900;6.234;2022-10-24T04:42:33;2.07;;;1.10;;
15151;SDS011;7676;50.900;6.234;2022-10-24T04:47:35;2.73;;;1.00;;
15151;SDS011;7676;50.900;6.234;2022-10-24T04:52:38;2.67;;;0.97;;
15151;SDS011;7676;50.900;6.234;2022-10-24T04:57:40;2.87;;;1.03;;
15151;SDS011;7676;50.900;6.234;2022-10-24T05:02:43;3.87;;;1.47;;
15151;SDS011;7676;50.900;6.234;2022-10-24T05:07:46;3.20;;;1.00;;
15151;SDS011;7676;50.900;6.234;2022-10-24T05:12:48;1.80;;;1.20;;
15151;SDS011;7676;50.900;6.234;2022-10-24T05:18:11;2.63;;;1.00;;
15151;SDS011;7676;50.900;6.234;2022-10-24T05:23:13;2.07;;;0.90;;
15151;SDS011;7676;50.900;6.234;2022-10-24T05:28:15;2.93;;;1.00;;
15151;SDS011;7676;50.900;6.234;2022-10-24T05:33:18;4.00;;;1.50;;
15151;SDS011;7676;50.900;6.234;2022-10-24T05:38:21;1.70;;;1.00;;
15151;SDS011;7676;50.900;6.234;2022-10-24T05:43:24;2.87;;;1.20;;
15151;SDS011;7676;50.900;6.234;2022-10-24T05:48:26;1.80;;;1.30;;
15151;SDS011;7676;50.900;6.234;2022-10-24T05:53:29;3.40;;;1.07;;
15151;SDS011;7676;50.900;6.234;2022-10-24T05:58:32;2.10;;;1.07;;
15151;SDS011;7676;50.900;6.234;2022-10-24T06:03:35;2.13;;;0.90;;
15151;SDS011;7676;50.900;6.234;2022-10-24T06:08:37;2.50;;;1.00;;
15151;SDS011;7676;50.900;6.234;2022-10-24T06:13:40;2.97;;;1.30;;
15151;SDS011;7676;50.900;6.234;2022-10-24T06:18:42;2.27;;;1.10;;
15151;SDS011;7676;50.900;6.234;2022-10-24T06:23:45;3.17;;;1.30;;
15151;SDS011;7676;50.900;6.234;2022-10-24T06:28:47;3.90;;;1.00;;
15151;SDS011;7676;50.900;6.234;2022-10-24T06:33:50;3.17;;;1.27;;
15151;SDS011;7676;50.900;6.234;2022-10-24T06:38:55;3.20;;;1.20;;
15151;SDS011;7676;50.900;6.234;2022-10-24T06:43:58;4.27;;;1.33;;
15151;SDS011;7676;50.900;6.234;2022-10-24T06:49:00;3.57;;;1.20;;
15151;SDS011;7676;50.900;6.234;2022-10-24T06:54:02;4.20;;;1.60;;
15151;SDS011;7676;50.900;6.234;2022-10-24T06:59:08;4.50;;;1.50;;
15151;SDS011;7676;50.900;6.234;2022-10-24T07:04:16;3.33;;;1.10;;
15151;SDS011;7676;50.900;6.234;2022-10-24T07:09:18;3.90;;;1.23;;
15151;SDS011;7676;50.900;6.234;2022-10-24T07:14:21;4.10;;;1.30;;
15151;SDS011;7676;50.900;6.234;2022-10-24T07:19:23;4.23;;;1.53;;
15151;SDS011;7676;50.900;6.234;2022-10-24T07:24:26;3.13;;;1.13;;
15151;SDS011;7676;50.900;6.234;2022-10-24T07:29:28;4.07;;;1.60;;
15151;SDS011;7676;50.900;6.234;2022-10-24T07:34:31;4.23;;;1.40;;
15151;SDS011;7676;50.900;6.234;2022-10-24T07:39:33;4.57;;;1.57;;
15151;SDS011;7676;50.900;6.234;2022-10-24T07:44:36;6.17;;;2.27;;
15151;SDS011;7676;50.900;6.234;2022-10-24T07:49:38;5.33;;;1.13;;
15151;SDS011;7676;50.900;6.234;2022-10-24T07:54:41;4.43;;;1.20;;
15151;SDS011;7676;50.900;6.234;2022-10-24T07:59:43;3.83;;;1.07;;
15151;SDS011;7676;50.900;6.234;2022-10-24T08:04:46;4.83;;;1.80;;
15151;SDS011;7676;50.900;6.234;2022-10-24T08:09:48;6.10;;;1.50;;
15151;SDS011;7676;50.900;6.234;2022-10-24T08:14:52;4.20;;;1.30;;
15151;SDS011;7676;50.900;6.234;2022-10-24T08:19:56;4.20;;;1.60;;
15151;SDS011;7676;50.900;6.234;2022-10-24T08:24:59;3.40;;;1.30;;
15151;SDS011;7676;50.900;6.234;2022-10-24T08:30:02;3.10;;;1.27;;
15151;SDS011;7676;50.900;6.234;2022-10-24T08:35:05;4.90;;;1.33;;
15151;SDS011;7676;50.900;6.234;2022-10-24T08:40:11;4.67;;;1.77;;
15151;SDS011;7676;50.900;6.234;2022-10-24T08:45:38;4.90;;;1.30;;
15151;SDS011;7676;50.900;6.234;2022-10-24T08:50:50;5.67;;;1.50;;
15151;SDS011;7676;50.900;6.234;2022-10-24T08:55:58;5.73;;;1.57;;
15151;SDS011;7676;50.900;6.234;2022-10-24T09:01:03;5.00;;;1.60;;
15151;SDS011;7676;50.900;6.234;2022-10-24T09:06:20;4.93;;;1.47;;
15151;SDS011;7676;50.900;6.234;2022-10-24T09:16:59;4.80;;;1.50;;
15151;SDS011;7676;50.900;6.234;2022-10-24T09:22:11;5.17;;;1.40;;
15151;SDS011;7676;50.900;6.234;2022-10-24T09:27:16;4.70;;;1.37;;
15151;SDS011;7676;50.900;6.234;2022-10-24T09:32:30;4.90;;;2.10;;
15151;SDS011;7676;50.900;6.234;2022-10-24T09:37:38;3.33;;;1.57;;
15151;SDS011;7676;50.900;6.234;2022-10-24T09:53:38;3.63;;;1.30;;
15151;SDS011;7676;50.900;6.234;2022-10-24T09:58:41;5.47;;;1.60;;
15151;SDS011;7676;50.900;6.234;2022-10-24T10:04:01;5.00;;;1.40;;
15151;SDS011;7676;50.900;6.234;2022-10-24T10:09:11;3.87;;;1.23;;
15151;SDS011;7676;50.900;6.234;2022-10-24T10:14:23;3.70;;;1.47;;
15151;SDS011;7676;50.900;6.234;2022-10-24T10:19:29;4.33;;;1.47;;
15151;SDS011;7676;50.900;6.234;2022-10-24T10:24:46;4.80;;;1.57;;
15151;SDS011;7676;50.900;6.234;2022-10-24T10:30:02;6.83;;;1.67;;
15151;SDS011;7676;50.900;6.234;2022-10-24T10:35:51;3.43;;;1.53;;
15151;SDS011;7676;50.900;6.234;2022-10-24T10:40:46;3.40;;;1.20;;
15151;SDS011;7676;50.900;6.234;2022-10-24T10:46:06;5.83;;;1.53;;
15151;SDS011;7676;50.900;6.234;2022-10-24T10:56:52;4.73;;;1.50;;
15151;SDS011;7676;50.900;6.234;2022-10-24T11:12:43;3.87;;;1.37;;
15151;SDS011;7676;50.900;6.234;2022-10-24T11:28:36;5.63;;;1.60;;
15151;SDS011;7676;50.900;6.234;2022-10-24T11:33:52;4.60;;;1.50;;
15151;SDS011;7676;50.900;6.234;2022-10-24T11:39:11;7.67;;;1.87;;
15151;SDS011;7676;50.900;6.234;2022-10-24T11:55:18;4.67;;;1.30;;
15151;SDS011;7676;50.900;6.234;2022-10-24T12:00:26;6.67;;;1.63;;
15151;SDS011;7676;50.900;6.234;2022-10-24T12:21:21;5.67;;;1.40;;
15151;SDS011;7676;50.900;6.234;2022-10-24T12:26:28;5.50;;;1.53;;
15151;SDS011;7676;50.900;6.234;2022-10-24T12:31:37;6.33;;;1.47;;
15151;SDS011;7676;50.900;6.234;2022-10-24T12:42:01;3.73;;;2.03;;
15151;SDS011;7676;50.900;6.234;2022-10-24T12:57:35;4.07;;;1.70;;
15151;SDS011;7676;50.900;6.234;2022-10-24T13:07:52;4.97;;;1.80;;
15151;SDS011;7676;50.900;6.234;2022-10-24T13:18:40;6.20;;;1.70;;
15151;SDS011;7676;50.900;6.234;2022-10-24T13:23:45;3.97;;;1.37;;
15151;SDS011;7676;50.900;6.234;2022-10-24T13:28:49;4.43;;;1.20;;
15151;SDS011;7676;50.900;6.234;2022-10-24T13:33:52;3.80;;;1.57;;
15151;SDS011;7676;50.900;6.234;2022-10-24T13:39:17;3.93;;;1.50;;
15151;SDS011;7676;50.900;6.234;2022-10-24T13:44:27;4.07;;;1.27;;
15151;SDS011;7676;50.900;6.234;2022-10-24T13:49:36;4.70;;;1.50;;
15151;SDS011;7676;50.900;6.234;2022-10-24T13:54:42;6.17;;;1.90;;
15151;SDS011;7676;50.900;6.234;2022-10-24T13:59:55;4.10;;;1.80;;
15151;SDS011;7676;50.900;6.234;2022-10-24T14:05:00;7.43;;;1.97;;
15151;SDS011;7676;50.900;6.234;2022-10-24T14:10:07;3.80;;;1.80;;
15151;SDS011;7676;50.900;6.234;2022-10-24T14:15:17;3.40;;;1.30;;
15151;SDS011;7676;50.900;6.234;2022-10-24T14:20:23;5.30;;;1.70;;
15151;SDS011;7676;50.900;6.234;2022-10-24T14:30:36;4.80;;;1.40;;
15151;SDS011;7676;50.900;6.234;2022-10-24T14:35:39;8.27;;;1.77;;
15151;SDS011;7676;50.900;6.234;2022-10-24T14:40:44;6.03;;;1.80;;
15151;SDS011;7676;50.900;6.234;2022-10-24T14:56:36;4.63;;;1.50;;
15151;SDS011;7676;50.900;6.234;2022-10-24T15:01:40;4.87;;;1.30;;
15151;SDS011;7676;50.900;6.234;2022-10-24T15:06:53;5.17;;;1.70;;
15151;SDS011;7676;50.900;6.234;2022-10-24T15:11:59;4.97;;;1.63;;
15151;SDS011;7676;50.900;6.234;2022-10-24T15:17:05;4.37;;;1.73;;
15151;SDS011;7676;50.900;6.234;2022-10-24T15:27:30;5.00;;;1.60;;
15151;SDS011;7676;50.900;6.234;2022-10-24T15:32:39;4.13;;;1.40;;
15151;SDS011;7676;50.900;6.234;2022-10-24T15:38:02;4.93;;;1.80;;
15151;SDS011;7676;50.900;6.234;2022-10-24T15:43:17;5.70;;;1.80;;
15151;SDS011;7676;50.900;6.234;2022-10-24T15:48:20;4.97;;;1.83;;
15151;SDS011;7676;50.900;6.234;2022-10-24T15:53:23;5.40;;;1.80;;
15151;SDS011;7676;50.900;6.234;2022-10-24T15:58:25;5.50;;;1.80;;
15151;SDS011;7676;50.900;6.234;2022-10-24T16:03:29;4.33;;;1.73;;
15151;SDS011;7676;50.900;6.234;2022-10-24T16:08:34;5.93;;;1.73;;
15151;SDS011;7676;50.900;6.234;2022-10-24T16:13:36;4.83;;;1.87;;
15151;SDS011;7676;50.900;6.234;2022-10-24T16:18:38;4.23;;;1.70;;
15151;SDS011;7676;50.900;6.234;2022-10-24T16:23:41;4.40;;;1.60;;
15151;SDS011;7676;50.900;6.234;2022-10-24T16:28:43;6.07;;;1.80;;
15151;SDS011;7676;50.900;6.234;2022-10-24T16:33:45;6.50;;;2.00;;
15151;SDS011;7676;50.900;6.234;2022-10-24T16:38:48;6.10;;;2.00;;
15151;SDS011;7676;50.900;6.234;2022-10-24T16:43:54;4.83;;;1.93;;
15151;SDS011;7676;50.900;6.234;2022-10-24T16:48:59;6.60;;;1.70;;
15151;SDS011;7676;50.900;6.234;2022-10-24T16:54:02;5.67;;;2.03;;
15151;SDS011;7676;50.900;6.234;2022-10-24T16:59:04;7.13;;;2.43;;
15151;SDS011;7676;50.900;6.234;2022-10-24T17:04:09;6.70;;;2.37;;
15151;SDS011;7676;50.900;6.234;2022-10-24T17:09:11;6.93;;;2.17;;
15151;SDS011;7676;50.900;6.234;2022-10-24T17:14:14;5.33;;;1.90;;
15151;SDS011;7676;50.900;6.234;2022-10-24T17:19:16;7.93;;;2.07;;
15151;SDS011;7676;50.900;6.234;2022-10-24T17:24:20;6.67;;;2.50;;
15151;SDS011;7676;50.900;6.234;2022-10-24T17:29:29;6.17;;;2.30;;
15151;SDS011;7676;50.900;6.234;2022-10-24T17:34:34;5.70;;;2.10;;
15151;SDS011;7676;50.900;6.234;2022-10-24T17:39:42;5.87;;;1.93;;
15151;SDS011;7676;50.900;6.234;2022-10-24T17:44:47;6.80;;;2.10;;
15151;SDS011;7676;50.900;6.234;2022-10-24T17:49:50;5.23;;;1.90;;
15151;SDS011;7676;50.900;6.234;2022-10-24T17:54:52;6.47;;;2.10;;
15151;SDS011;7676;50.900;6.234;2022-10-24T17:59:55;6.17;;;2.13;;
15151;SDS011;7676;50.900;6.234;2022-10-24T18:04:57;3.67;;;1.93;;
15151;SDS011;7676;50.900;6.234;2022-10-24T18:09:59;5.43;;;1.90;;
15151;SDS011;7676;50.900;6.234;2022-10-24T18:15:02;4.70;;;1.97;;
15151;SDS011;7676;50.900;6.234;2022-10-24T18:20:06;5.93;;;2.00;;
15151;SDS011;7676;50.900;6.234;2022-10-24T18:25:10;5.60;;;2.07;;
15151;SDS011;7676;50.900;6.234;2022-10-24T18:30:17;5.10;;;1.90;;
15151;SDS011;7676;50.900;6.234;2022-10-24T18:35:22;4.23;;;1.93;;
15151;SDS011;7676;50.900;6.234;2022-10-24T18:40:28;4.83;;;2.17;;
15151;SDS011;7676;50.900;6.234;2022-10-24T18:45:33;5.07;;;1.70;;
15151;SDS011;7676;50.900;6.234;2022-10-24T18:50:36;4.97;;;2.00;;
15151;SDS011;7676;50.900;6.234;2022-10-24T18:55:39;7.30;;;2.30;;
15151;SDS011;7676;50.900;6.234;2022-10-24T19:00:42;3.90;;;1.70;;
15151;SDS011;7676;50.900;6.234;2022-10-24T19:05:45;5.70;;;1.80;;
15151;SDS011;7676;50.900;6.234;2022-10-24T19:11:02;4.90;;;1.93;;
15151;SDS011;7676;50.900;6.234;2022-10-24T19:16:04;5.13;;;1.90;;
15151;SDS011;7676;50.900;6.234;2022-10-24T19:21:10;5.33;;;1.77;;
15151;SDS011;7676;50.900;6.234;2022-10-24T19:26:13;5.70;;;1.60;;
15151;SDS011;7676;50.900;6.234;2022-10-24T19:31:16;4.17;;;1.50;;
15151;SDS011;7676;50.900;6.234;2022-10-24T19:36:18;5.40;;;1.80;;
15151;SDS011;7676;50.900;6.234;2022-10-24T19:41:21;8.60;;;2.20;;
15151;SDS011;7676;50.900;6.234;2022-10-24T19:46:25;6.03;;;1.80;;
15151;SDS011;7676;50.900;6.234;2022-10-24T19:51:27;6.07;;;2.00;;
15151;SDS011;7676;50.900;6.234;2022-10-24T19:56:30;6.37;;;2.00;;
15151;SDS011;7676;50.900;6.234;2022-10-24T20:01:34;6.27;;;2.30;;
15151;SDS011;7676;50.900;6.234;2022-10-24T20:06:38;4.57;;;1.60;;
15151;SDS011;7676;50.900;6.234;2022-10-24T20:11:40;5.60;;;1.50;;
15151;SDS011;7676;50.900;6.234;2022-10-24T20:16:42;6.30;;;1.80;;
15151;SDS011;7676;50.900;6.234;2022-10-24T20:21:45;4.50;;;1.73;;
15151;SDS011;7676;50.900;6.234;2022-10-24T20:26:47;4.63;;;1.50;;
15151;SDS011;7676;50.900;6.234;2022-10-24T20:31:50;5.40;;;1.73;;
15151;SDS011;7676;50.900;6.234;2022-10-24T20:36:52;4.60;;;1.73;;
15151;SDS011;7676;50.900;6.234;2022-10-24T20:41:54;6.03;;;1.70;;
15151;SDS011;7676;50.900;6.234;2022-10-24T20:46:58;3.63;;;1.57;;
15151;SDS011;7676;50.900;6.234;2022-10-24T20:52:00;4.23;;;1.73;;
15151;SDS011;7676;50.900;6.234;2022-10-24T20:57:03;4.73;;;1.80;;
15151;SDS011;7676;50.900;6.234;2022-10-24T21:02:05;6.17;;;1.70;;
15151;SDS011;7676;50.900;6.234;2022-10-24T21:07:10;5.30;;;1.63;;
15151;SDS011;7676;50.900;6.234;2022-10-24T21:12:13;4.03;;;1.60;;
15151;SDS011;7676;50.900;6.234;2022-10-24T21:17:15;4.67;;;1.80;;
15151;SDS011;7676;50.900;6.234;2022-10-24T21:22:17;6.17;;;1.83;;
15151;SDS011;7676;50.900;6.234;2022-10-24T21:27:20;4.30;;;1.33;;
15151;SDS011;7676;50.900;6.234;2022-10-24T21:32:22;4.10;;;1.70;;
15151;SDS011;7676;50.900;6.234;2022-10-24T21:37:24;5.73;;;1.80;;
15151;SDS011;7676;50.900;6.234;2022-10-24T21:42:30;4.90;;;1.70;;
15151;SDS011;7676;50.900;6.234;2022-10-24T21:47:34;3.83;;;1.47;;
15151;SDS011;7676;50.900;6.234;2022-10-24T21:52:36;4.00;;;1.60;;
15151;SDS011;7676;50.900;6.234;2022-10-24T21:57:39;5.67;;;1.73;;
15151;SDS011;7676;50.900;6.234;2022-10-24T22:02:41;4.73;;;1.30;;
15151;SDS011;7676;50.900;6.234;2022-10-24T22:07:44;4.40;;;1.73;;
15151;SDS011;7676;50.900;6.234;2022-10-24T22:12:50;4.83;;;1.57;;
15151;SDS011;7676;50.900;6.234;2022-10-24T22:17:52;4.57;;;2.07;;
15151;SDS011;7676;50.900;6.234;2022-10-24T22:22:55;3.63;;;1.50;;
15151;SDS011;7676;50.900;6.234;2022-10-24T22:27:57;4.70;;;1.70;;
15151;SDS011;7676;50.900;6.234;2022-10-24T22:32:59;4.63;;;1.47;;
15151;SDS011;7676;50.900;6.234;2022-10-24T22:38:02;5.53;;;1.30;;
15151;SDS011;7676;50.900;6.234;2022-10-24T22:43:05;4.47;;;1.50;;
15151;SDS011;7676;50.900;6.234;2022-10-24T22:48:15;3.87;;;1.50;;
15151;SDS011;7676;50.900;6.234;2022-10-24T22:53:22;7.13;;;1.90;;
15151;SDS011;7676;50.900;6.234;2022-10-24T22:58:28;5.90;;;1.47;;
15151;SDS011;7676;50.900;6.234;2022-10-24T23:03:44;2.80;;;1.30;;
15151;SDS011;7676;50.900;6.234;2022-10-24T23:08:55;3.97;;;1.40;;
15151;SDS011;7676;50.900;6.234;2022-10-24T23:13:57;3.93;;;1.20;;
15151;SDS011;7676;50.900;6.234;2022-10-24T23:19:02;6.23;;;1.50;;
15151;SDS011;7676;50.900;6.234;2022-10-24T23:24:19;4.80;;;1.90;;
15151;SDS011;7676;50.900;6.234;2022-10-24T23:34:27;4.97;;;1.70;;
15151;SDS011;7676;50.900;6.234;2022-10-24T23:39:33;5.60;;;1.43;;
15151;SDS011;7676;50.900;6.234;2022-10-24T23:44:36;3.97;;;1.40;;
15151;SDS011;7676;50.900;6.234;2022-10-24T23:49:42;7.43;;;1.80;;
15151;SDS011;7676;50.900;6.234;2022-10-24T23:54:52;5.20;;;1.37;;
15151;SDS011;7676;50.900;6.234;2022-10-24T23:59:54;4.10;;;1.50;;
